sensor_id;sensor_type;location;lat;lon;timestamp;P1;durP1;ratioP1;P2;durP2;ratioP2
27977;SDS011;15314;49.248;6.968;2023-06-01T00:00:56;7.50;;;7.00;;
27977;SDS011;15314;49.248;6.968;2023-06-01T00:01:56;8.18;;;7.05;;
27977;SDS011;15314;49.248;6.968;2023-06-01T00:02:57;7.68;;;6.93;;
27977;SDS011;15314;49.248;6.968;2023-06-01T00:03:57;8.23;;;7.38;;
27977;SDS011;15314;49.248;6.968;2023-06-01T00:05:01;8.77;;;7.05;;
27977;SDS011;15314;49.248;6.968;2023-06-01T00:06:02;8.55;;;6.80;;
27977;SDS011;15314;49.248;6.968;2023-06-01T00:07:03;7.93;;;6.90;;
27977;SDS011;15314;49.248;6.968;2023-06-01T00:08:05;7.78;;;7.00;;
27977;SDS011;15314;49.248;6.968;2023-06-01T00:09:06;7.20;;;6.60;;
27977;SDS011;15314;49.248;6.968;2023-06-01T00:10:07;7.47;;;6.95;;
27977;SDS011;15314;49.248;6.968;2023-06-01T00:11:08;9.07;;;6.90;;
27977;SDS011;15314;49.248;6.968;2023-06-01T00:12:09;6.93;;;6.43;;
27977;SDS011;15314;49.248;6.968;2023-06-01T00:13:10;7.45;;;6.90;;
27977;SDS011;15314;49.248;6.968;2023-06-01T00:14:10;8.45;;;7.55;;
27977;SDS011;15314;49.248;6.968;2023-06-01T00:15:11;8.50;;;7.47;;
27977;SDS011;15314;49.248;6.968;2023-06-01T00:16:12;8.30;;;7.22;;
27977;SDS011;15314;49.248;6.968;2023-06-01T00:17:13;7.60;;;7.10;;
27977;SDS011;15314;49.248;6.968;2023-06-01T00:18:14;8.30;;;7.28;;
27977;SDS011;15314;49.248;6.968;2023-06-01T00:19:15;7.43;;;6.90;;
27977;SDS011;15314;49.248;6.968;2023-06-01T00:20:15;7.60;;;6.90;;
27977;SDS011;15314;49.248;6.968;2023-06-01T00:21:17;8.00;;;6.45;;
27977;SDS011;15314;49.248;6.968;2023-06-01T00:22:18;7.13;;;6.63;;
27977;SDS011;15314;49.248;6.968;2023-06-01T00:23:19;7.72;;;6.93;;
27977;SDS011;15314;49.248;6.968;2023-06-01T00:24:21;9.57;;;6.35;;
27977;SDS011;15314;49.248;6.968;2023-06-01T00:25:22;8.07;;;7.40;;
27977;SDS011;15314;49.248;6.968;2023-06-01T00:26:23;7.55;;;6.85;;
27977;SDS011;15314;49.248;6.968;2023-06-01T00:27:24;7.82;;;7.13;;
27977;SDS011;15314;49.248;6.968;2023-06-01T00:28:24;7.85;;;7.15;;
27977;SDS011;15314;49.248;6.968;2023-06-01T00:29:25;7.22;;;6.72;;
27977;SDS011;15314;49.248;6.968;2023-06-01T00:30:26;7.55;;;7.05;;
27977;SDS011;15314;49.248;6.968;2023-06-01T00:31:26;7.80;;;7.38;;
27977;SDS011;15314;49.248;6.968;2023-06-01T00:32:27;7.85;;;7.15;;
27977;SDS011;15314;49.248;6.968;2023-06-01T00:33:27;7.50;;;7.00;;
27977;SDS011;15314;49.248;6.968;2023-06-01T00:34:28;8.13;;;7.43;;
27977;SDS011;15314;49.248;6.968;2023-06-01T00:35:29;7.38;;;6.88;;
27977;SDS011;15314;49.248;6.968;2023-06-01T00:36:29;7.28;;;6.75;;
27977;SDS011;15314;49.248;6.968;2023-06-01T00:37:31;7.18;;;6.68;;
27977;SDS011;15314;49.248;6.968;2023-06-01T00:38:31;10.95;;;7.03;;
27977;SDS011;15314;49.248;6.968;2023-06-01T00:39:32;7.53;;;7.03;;
27977;SDS011;15314;49.248;6.968;2023-06-01T00:40:33;7.63;;;7.13;;
27977;SDS011;15314;49.248;6.968;2023-06-01T00:41:34;8.85;;;7.30;;
27977;SDS011;15314;49.248;6.968;2023-06-01T00:42:35;7.47;;;6.97;;
27977;SDS011;15314;49.248;6.968;2023-06-01T00:43:35;7.00;;;6.60;;
27977;SDS011;15314;49.248;6.968;2023-06-01T00:44:36;7.63;;;7.13;;
27977;SDS011;15314;49.248;6.968;2023-06-01T00:45:37;7.68;;;6.97;;
27977;SDS011;15314;49.248;6.968;2023-06-01T00:46:37;7.68;;;7.07;;
27977;SDS011;15314;49.248;6.968;2023-06-01T00:47:39;8.43;;;7.72;;
27977;SDS011;15314;49.248;6.968;2023-06-01T00:48:42;7.75;;;7.18;;
27977;SDS011;15314;49.248;6.968;2023-06-01T00:49:42;8.10;;;7.32;;
27977;SDS011;15314;49.248;6.968;2023-06-01T00:50:43;8.10;;;7.45;;
27977;SDS011;15314;49.248;6.968;2023-06-01T00:51:44;9.85;;;7.68;;
27977;SDS011;15314;49.248;6.968;2023-06-01T00:52:45;8.15;;;7.35;;
27977;SDS011;15314;49.248;6.968;2023-06-01T00:53:48;7.60;;;7.03;;
27977;SDS011;15314;49.248;6.968;2023-06-01T00:54:49;8.30;;;7.65;;
27977;SDS011;15314;49.248;6.968;2023-06-01T00:55:50;7.70;;;7.00;;
27977;SDS011;15314;49.248;6.968;2023-06-01T00:56:51;7.57;;;6.88;;
27977;SDS011;15314;49.248;6.968;2023-06-01T00:57:52;7.75;;;7.00;;
27977;SDS011;15314;49.248;6.968;2023-06-01T00:58:55;9.05;;;6.70;;
27977;SDS011;15314;49.248;6.968;2023-06-01T00:59:56;7.60;;;7.07;;
27977;SDS011;15314;49.248;6.968;2023-06-01T01:03:18;8.27;;;6.57;;
27977;SDS011;15314;49.248;6.968;2023-06-01T01:04:21;7.60;;;6.95;;
27977;SDS011;15314;49.248;6.968;2023-06-01T01:05:26;7.25;;;6.78;;
27977;SDS011;15314;49.248;6.968;2023-06-01T01:06:31;7.60;;;6.90;;
27977;SDS011;15314;49.248;6.968;2023-06-01T01:08:07;7.95;;;7.35;;
27977;SDS011;15314;49.248;6.968;2023-06-01T01:11:14;7.78;;;7.25;;
27977;SDS011;15314;49.248;6.968;2023-06-01T01:12:01;8.45;;;6.45;;
27977;SDS011;15314;49.248;6.968;2023-06-01T01:13:11;7.45;;;6.88;;
27977;SDS011;15314;49.248;6.968;2023-06-01T01:14:45;8.70;;;6.90;;
27977;SDS011;15314;49.248;6.968;2023-06-01T01:18:46;7.07;;;6.50;;
27977;SDS011;15314;49.248;6.968;2023-06-01T01:20:08;7.78;;;7.25;;
27977;SDS011;15314;49.248;6.968;2023-06-01T01:21:12;9.43;;;6.95;;
27977;SDS011;15314;49.248;6.968;2023-06-01T01:22:31;7.13;;;6.55;;
27977;SDS011;15314;49.248;6.968;2023-06-01T01:23:43;7.90;;;7.15;;
27977;SDS011;15314;49.248;6.968;2023-06-01T01:27:44;7.53;;;6.80;;
27977;SDS011;15314;49.248;6.968;2023-06-01T01:29:00;8.13;;;7.32;;
27977;SDS011;15314;49.248;6.968;2023-06-01T01:30:04;7.00;;;6.55;;
27977;SDS011;15314;49.248;6.968;2023-06-01T01:31:08;7.20;;;6.55;;
27977;SDS011;15314;49.248;6.968;2023-06-01T01:32:12;7.25;;;6.65;;
27977;SDS011;15314;49.248;6.968;2023-06-01T01:33:13;7.60;;;7.10;;
27977;SDS011;15314;49.248;6.968;2023-06-01T01:34:15;7.93;;;7.22;;
27977;SDS011;15314;49.248;6.968;2023-06-01T01:35:19;7.30;;;6.90;;
27977;SDS011;15314;49.248;6.968;2023-06-01T01:36:23;7.70;;;7.13;;
27977;SDS011;15314;49.248;6.968;2023-06-01T01:37:24;7.95;;;7.45;;
27977;SDS011;15314;49.248;6.968;2023-06-01T01:38:25;7.88;;;7.28;;
27977;SDS011;15314;49.248;6.968;2023-06-01T01:39:26;8.25;;;7.75;;
27977;SDS011;15314;49.248;6.968;2023-06-01T01:40:27;8.85;;;7.50;;
27977;SDS011;15314;49.248;6.968;2023-06-01T01:41:27;7.80;;;7.05;;
27977;SDS011;15314;49.248;6.968;2023-06-01T01:42:28;7.95;;;7.20;;
27977;SDS011;15314;49.248;6.968;2023-06-01T01:43:29;7.32;;;6.60;;
27977;SDS011;15314;49.248;6.968;2023-06-01T01:44:31;7.85;;;7.25;;
27977;SDS011;15314;49.248;6.968;2023-06-01T01:45:32;8.88;;;7.63;;
27977;SDS011;15314;49.248;6.968;2023-06-01T01:46:40;7.70;;;7.20;;
27977;SDS011;15314;49.248;6.968;2023-06-01T01:48:02;7.80;;;7.30;;
27977;SDS011;15314;49.248;6.968;2023-06-01T01:49:17;8.18;;;7.45;;
27977;SDS011;15314;49.248;6.968;2023-06-01T01:50:27;8.37;;;7.57;;
27977;SDS011;15314;49.248;6.968;2023-06-01T01:51:36;7.78;;;7.25;;
27977;SDS011;15314;49.248;6.968;2023-06-01T01:52:41;7.78;;;7.07;;
27977;SDS011;15314;49.248;6.968;2023-06-01T01:53:43;7.85;;;7.15;;
27977;SDS011;15314;49.248;6.968;2023-06-01T01:54:46;7.80;;;7.20;;
27977;SDS011;15314;49.248;6.968;2023-06-01T01:55:49;8.35;;;7.70;;
27977;SDS011;15314;49.248;6.968;2023-06-01T01:56:53;7.70;;;7.22;;
27977;SDS011;15314;49.248;6.968;2023-06-01T01:57:57;9.90;;;7.75;;
27977;SDS011;15314;49.248;6.968;2023-06-01T01:59:00;9.15;;;8.15;;
27977;SDS011;15314;49.248;6.968;2023-06-01T02:00:02;7.70;;;7.15;;
27977;SDS011;15314;49.248;6.968;2023-06-01T02:01:06;8.50;;;7.68;;
27977;SDS011;15314;49.248;6.968;2023-06-01T02:02:07;7.82;;;6.97;;
27977;SDS011;15314;49.248;6.968;2023-06-01T02:03:15;9.45;;;8.07;;
27977;SDS011;15314;49.248;6.968;2023-06-01T02:04:16;8.23;;;7.60;;
27977;SDS011;15314;49.248;6.968;2023-06-01T02:05:17;8.05;;;7.45;;
27977;SDS011;15314;49.248;6.968;2023-06-01T02:06:18;8.52;;;7.78;;
27977;SDS011;15314;49.248;6.968;2023-06-01T02:07:18;7.85;;;7.25;;
27977;SDS011;15314;49.248;6.968;2023-06-01T02:08:19;9.27;;;7.10;;
27977;SDS011;15314;49.248;6.968;2023-06-01T02:09:20;7.50;;;6.85;;
27977;SDS011;15314;49.248;6.968;2023-06-01T02:10:21;7.30;;;6.70;;
27977;SDS011;15314;49.248;6.968;2023-06-01T02:11:21;8.40;;;7.80;;
27977;SDS011;15314;49.248;6.968;2023-06-01T02:12:22;7.40;;;6.80;;
27977;SDS011;15314;49.248;6.968;2023-06-01T02:13:23;7.45;;;6.80;;
27977;SDS011;15314;49.248;6.968;2023-06-01T02:14:23;8.38;;;7.75;;
27977;SDS011;15314;49.248;6.968;2023-06-01T02:15:24;9.43;;;7.32;;
27977;SDS011;15314;49.248;6.968;2023-06-01T02:16:25;7.78;;;7.00;;
27977;SDS011;15314;49.248;6.968;2023-06-01T02:17:26;8.30;;;7.70;;
27977;SDS011;15314;49.248;6.968;2023-06-01T02:18:27;8.35;;;7.57;;
27977;SDS011;15314;49.248;6.968;2023-06-01T02:19:29;8.30;;;7.55;;
27977;SDS011;15314;49.248;6.968;2023-06-01T02:20:30;7.40;;;6.80;;
27977;SDS011;15314;49.248;6.968;2023-06-01T02:21:31;7.88;;;7.13;;
27977;SDS011;15314;49.248;6.968;2023-06-01T02:22:31;7.65;;;7.10;;
27977;SDS011;15314;49.248;6.968;2023-06-01T02:23:32;7.85;;;7.05;;
27977;SDS011;15314;49.248;6.968;2023-06-01T02:24:32;7.72;;;7.13;;
27977;SDS011;15314;49.248;6.968;2023-06-01T02:25:33;7.25;;;6.65;;
27977;SDS011;15314;49.248;6.968;2023-06-01T02:26:34;7.93;;;7.28;;
27977;SDS011;15314;49.248;6.968;2023-06-01T02:27:35;8.35;;;7.45;;
27977;SDS011;15314;49.248;6.968;2023-06-01T02:28:39;8.10;;;7.28;;
27977;SDS011;15314;49.248;6.968;2023-06-01T02:29:40;8.43;;;7.60;;
27977;SDS011;15314;49.248;6.968;2023-06-01T02:30:41;7.63;;;7.13;;
27977;SDS011;15314;49.248;6.968;2023-06-01T02:31:42;8.65;;;7.85;;
27977;SDS011;15314;49.248;6.968;2023-06-01T02:32:42;8.57;;;7.88;;
27977;SDS011;15314;49.248;6.968;2023-06-01T02:33:48;8.25;;;7.45;;
27977;SDS011;15314;49.248;6.968;2023-06-01T02:34:49;8.70;;;7.50;;
27977;SDS011;15314;49.248;6.968;2023-06-01T02:35:49;8.60;;;7.85;;
27977;SDS011;15314;49.248;6.968;2023-06-01T02:36:50;8.15;;;7.45;;
27977;SDS011;15314;49.248;6.968;2023-06-01T02:37:55;9.48;;;8.50;;
27977;SDS011;15314;49.248;6.968;2023-06-01T02:38:57;7.60;;;7.10;;
27977;SDS011;15314;49.248;6.968;2023-06-01T02:39:58;8.45;;;7.75;;
27977;SDS011;15314;49.248;6.968;2023-06-01T02:40:58;8.35;;;7.60;;
27977;SDS011;15314;49.248;6.968;2023-06-01T02:41:59;7.93;;;7.22;;
27977;SDS011;15314;49.248;6.968;2023-06-01T02:43:00;7.72;;;7.15;;
27977;SDS011;15314;49.248;6.968;2023-06-01T02:44:01;8.40;;;7.78;;
27977;SDS011;15314;49.248;6.968;2023-06-01T02:45:02;8.35;;;7.75;;
27977;SDS011;15314;49.248;6.968;2023-06-01T02:46:04;8.07;;;7.47;;
27977;SDS011;15314;49.248;6.968;2023-06-01T02:47:04;8.20;;;7.60;;
27977;SDS011;15314;49.248;6.968;2023-06-01T02:48:06;10.88;;;8.15;;
27977;SDS011;15314;49.248;6.968;2023-06-01T02:49:07;8.13;;;7.43;;
27977;SDS011;15314;49.248;6.968;2023-06-01T02:50:07;10.85;;;7.25;;
27977;SDS011;15314;49.248;6.968;2023-06-01T02:51:08;8.35;;;7.60;;
27977;SDS011;15314;49.248;6.968;2023-06-01T02:52:09;9.02;;;8.27;;
27977;SDS011;15314;49.248;6.968;2023-06-01T02:53:09;8.30;;;7.53;;
27977;SDS011;15314;49.248;6.968;2023-06-01T02:54:10;7.97;;;7.47;;
27977;SDS011;15314;49.248;6.968;2023-06-01T02:55:11;8.80;;;8.00;;
27977;SDS011;15314;49.248;6.968;2023-06-01T02:56:12;9.00;;;8.30;;
27977;SDS011;15314;49.248;6.968;2023-06-01T02:57:13;8.18;;;7.53;;
27977;SDS011;15314;49.248;6.968;2023-06-01T02:58:14;8.45;;;7.78;;
27977;SDS011;15314;49.248;6.968;2023-06-01T02:59:16;8.82;;;7.60;;
27977;SDS011;15314;49.248;6.968;2023-06-01T03:00:17;8.90;;;8.00;;
27977;SDS011;15314;49.248;6.968;2023-06-01T03:01:17;8.38;;;7.72;;
27977;SDS011;15314;49.248;6.968;2023-06-01T03:02:19;8.10;;;7.50;;
27977;SDS011;15314;49.248;6.968;2023-06-01T03:03:20;8.85;;;7.97;;
27977;SDS011;15314;49.248;6.968;2023-06-01T03:04:21;8.20;;;7.47;;
27977;SDS011;15314;49.248;6.968;2023-06-01T03:05:22;8.23;;;7.32;;
27977;SDS011;15314;49.248;6.968;2023-06-01T03:06:23;7.85;;;7.32;;
27977;SDS011;15314;49.248;6.968;2023-06-01T03:07:23;8.82;;;8.10;;
27977;SDS011;15314;49.248;6.968;2023-06-01T03:08:25;8.13;;;7.60;;
27977;SDS011;15314;49.248;6.968;2023-06-01T03:09:25;8.30;;;7.57;;
27977;SDS011;15314;49.248;6.968;2023-06-01T03:10:26;8.05;;;7.32;;
27977;SDS011;15314;49.248;6.968;2023-06-01T03:11:27;7.85;;;7.13;;
27977;SDS011;15314;49.248;6.968;2023-06-01T03:12:28;7.70;;;7.07;;
27977;SDS011;15314;49.248;6.968;2023-06-01T03:13:28;7.88;;;7.13;;
27977;SDS011;15314;49.248;6.968;2023-06-01T03:14:29;7.82;;;7.18;;
27977;SDS011;15314;49.248;6.968;2023-06-01T03:15:29;7.22;;;6.65;;
27977;SDS011;15314;49.248;6.968;2023-06-01T03:16:30;7.43;;;6.97;;
27977;SDS011;15314;49.248;6.968;2023-06-01T03:17:31;7.53;;;7.03;;
27977;SDS011;15314;49.248;6.968;2023-06-01T03:18:33;8.02;;;7.22;;
27977;SDS011;15314;49.248;6.968;2023-06-01T03:19:33;8.88;;;7.97;;
27977;SDS011;15314;49.248;6.968;2023-06-01T03:20:34;8.00;;;7.47;;
27977;SDS011;15314;49.248;6.968;2023-06-01T03:21:35;7.43;;;6.93;;
27977;SDS011;15314;49.248;6.968;2023-06-01T03:22:36;7.38;;;6.78;;
27977;SDS011;15314;49.248;6.968;2023-06-01T03:23:36;8.45;;;7.45;;
27977;SDS011;15314;49.248;6.968;2023-06-01T03:24:37;8.25;;;7.55;;
27977;SDS011;15314;49.248;6.968;2023-06-01T03:25:41;8.75;;;7.85;;
27977;SDS011;15314;49.248;6.968;2023-06-01T03:26:42;8.00;;;7.43;;
27977;SDS011;15314;49.248;6.968;2023-06-01T03:27:43;9.93;;;7.82;;
27977;SDS011;15314;49.248;6.968;2023-06-01T03:28:43;8.05;;;7.30;;
27977;SDS011;15314;49.248;6.968;2023-06-01T03:29:44;8.45;;;7.82;;
27977;SDS011;15314;49.248;6.968;2023-06-01T03:30:45;9.35;;;7.63;;
27977;SDS011;15314;49.248;6.968;2023-06-01T03:31:46;11.43;;;10.40;;
27977;SDS011;15314;49.248;6.968;2023-06-01T03:32:47;12.73;;;8.38;;
27977;SDS011;15314;49.248;6.968;2023-06-01T03:33:48;10.23;;;9.40;;
27977;SDS011;15314;49.248;6.968;2023-06-01T03:34:48;8.90;;;7.97;;
27977;SDS011;15314;49.248;6.968;2023-06-01T03:35:49;8.85;;;7.97;;
27977;SDS011;15314;49.248;6.968;2023-06-01T03:36:50;8.20;;;7.60;;
27977;SDS011;15314;49.248;6.968;2023-06-01T03:37:50;8.48;;;7.88;;
27977;SDS011;15314;49.248;6.968;2023-06-01T03:38:51;8.18;;;7.60;;
27977;SDS011;15314;49.248;6.968;2023-06-01T03:39:52;9.10;;;8.30;;
27977;SDS011;15314;49.248;6.968;2023-06-01T03:40:52;8.88;;;8.23;;
27977;SDS011;15314;49.248;6.968;2023-06-01T03:41:53;9.07;;;8.25;;
27977;SDS011;15314;49.248;6.968;2023-06-01T03:42:53;8.82;;;7.97;;
27977;SDS011;15314;49.248;6.968;2023-06-01T03:43:54;8.63;;;7.82;;
27977;SDS011;15314;49.248;6.968;2023-06-01T03:44:55;8.23;;;7.70;;
27977;SDS011;15314;49.248;6.968;2023-06-01T03:45:56;8.48;;;7.85;;
27977;SDS011;15314;49.248;6.968;2023-06-01T03:46:56;10.93;;;8.98;;
27977;SDS011;15314;49.248;6.968;2023-06-01T03:47:57;8.93;;;8.07;;
27977;SDS011;15314;49.248;6.968;2023-06-01T03:48:58;11.20;;;8.00;;
27977;SDS011;15314;49.248;6.968;2023-06-01T03:49:58;8.85;;;8.15;;
27977;SDS011;15314;49.248;6.968;2023-06-01T03:50:59;10.85;;;7.78;;
27977;SDS011;15314;49.248;6.968;2023-06-01T03:52:00;8.95;;;8.05;;
27977;SDS011;15314;49.248;6.968;2023-06-01T03:53:00;10.95;;;7.85;;
27977;SDS011;15314;49.248;6.968;2023-06-01T03:54:01;8.90;;;8.20;;
27977;SDS011;15314;49.248;6.968;2023-06-01T03:55:03;20.52;;;8.65;;
27977;SDS011;15314;49.248;6.968;2023-06-01T03:56:08;8.30;;;7.60;;
27977;SDS011;15314;49.248;6.968;2023-06-01T03:57:08;9.65;;;7.90;;
27977;SDS011;15314;49.248;6.968;2023-06-01T03:58:09;8.75;;;7.93;;
27977;SDS011;15314;49.248;6.968;2023-06-01T03:59:09;11.05;;;8.98;;
27977;SDS011;15314;49.248;6.968;2023-06-01T04:00:10;8.90;;;7.95;;
27977;SDS011;15314;49.248;6.968;2023-06-01T04:01:20;9.43;;;8.43;;
27977;SDS011;15314;49.248;6.968;2023-06-01T04:02:22;9.30;;;8.43;;
27977;SDS011;15314;49.248;6.968;2023-06-01T04:03:23;10.65;;;7.90;;
27977;SDS011;15314;49.248;6.968;2023-06-01T04:04:26;9.38;;;8.48;;
27977;SDS011;15314;49.248;6.968;2023-06-01T04:05:29;10.18;;;7.97;;
27977;SDS011;15314;49.248;6.968;2023-06-01T04:06:30;10.60;;;8.23;;
27977;SDS011;15314;49.248;6.968;2023-06-01T04:07:35;8.98;;;7.82;;
27977;SDS011;15314;49.248;6.968;2023-06-01T04:08:36;9.48;;;8.68;;
27977;SDS011;15314;49.248;6.968;2023-06-01T04:09:36;8.65;;;7.90;;
27977;SDS011;15314;49.248;6.968;2023-06-01T04:10:38;9.45;;;8.68;;
27977;SDS011;15314;49.248;6.968;2023-06-01T04:11:40;9.35;;;8.55;;
27977;SDS011;15314;49.248;6.968;2023-06-01T04:12:41;9.52;;;8.88;;
27977;SDS011;15314;49.248;6.968;2023-06-01T04:13:45;9.98;;;9.18;;
27977;SDS011;15314;49.248;6.968;2023-06-01T04:14:46;13.07;;;9.10;;
27977;SDS011;15314;49.248;6.968;2023-06-01T04:15:47;9.88;;;9.18;;
27977;SDS011;15314;49.248;6.968;2023-06-01T04:16:47;9.70;;;9.00;;
27977;SDS011;15314;49.248;6.968;2023-06-01T04:17:48;10.00;;;9.20;;
27977;SDS011;15314;49.248;6.968;2023-06-01T04:18:49;10.07;;;9.27;;
27977;SDS011;15314;49.248;6.968;2023-06-01T04:19:50;8.98;;;8.30;;
27977;SDS011;15314;49.248;6.968;2023-06-01T04:20:50;9.70;;;9.05;;
27977;SDS011;15314;49.248;6.968;2023-06-01T04:21:51;13.35;;;9.55;;
27977;SDS011;15314;49.248;6.968;2023-06-01T04:22:52;9.90;;;8.98;;
27977;SDS011;15314;49.248;6.968;2023-06-01T04:23:53;9.38;;;8.65;;
27977;SDS011;15314;49.248;6.968;2023-06-01T04:24:53;9.35;;;8.65;;
27977;SDS011;15314;49.248;6.968;2023-06-01T04:25:54;9.93;;;9.00;;
27977;SDS011;15314;49.248;6.968;2023-06-01T04:26:59;9.85;;;9.07;;
27977;SDS011;15314;49.248;6.968;2023-06-01T04:28:00;10.25;;;9.27;;
27977;SDS011;15314;49.248;6.968;2023-06-01T04:29:01;9.65;;;8.55;;
27977;SDS011;15314;49.248;6.968;2023-06-01T04:30:06;9.30;;;8.60;;
27977;SDS011;15314;49.248;6.968;2023-06-01T04:31:10;9.63;;;8.88;;
27977;SDS011;15314;49.248;6.968;2023-06-01T04:32:16;9.88;;;9.05;;
27977;SDS011;15314;49.248;6.968;2023-06-01T04:33:21;10.00;;;9.25;;
27977;SDS011;15314;49.248;6.968;2023-06-01T04:34:22;10.13;;;9.32;;
27977;SDS011;15314;49.248;6.968;2023-06-01T04:35:23;9.70;;;9.00;;
27977;SDS011;15314;49.248;6.968;2023-06-01T04:36:23;9.55;;;8.77;;
27977;SDS011;15314;49.248;6.968;2023-06-01T04:37:24;9.10;;;8.30;;
27977;SDS011;15314;49.248;6.968;2023-06-01T04:38:26;9.15;;;8.35;;
27977;SDS011;15314;49.248;6.968;2023-06-01T04:39:26;10.20;;;9.40;;
27977;SDS011;15314;49.248;6.968;2023-06-01T04:40:28;10.10;;;9.30;;
27977;SDS011;15314;49.248;6.968;2023-06-01T04:41:28;9.57;;;8.93;;
27977;SDS011;15314;49.248;6.968;2023-06-01T04:42:31;9.70;;;8.75;;
27977;SDS011;15314;49.248;6.968;2023-06-01T04:43:32;9.77;;;8.98;;
27977;SDS011;15314;49.248;6.968;2023-06-01T04:44:32;10.07;;;9.10;;
27977;SDS011;15314;49.248;6.968;2023-06-01T04:45:34;9.68;;;8.93;;
27977;SDS011;15314;49.248;6.968;2023-06-01T04:46:34;9.88;;;8.98;;
27977;SDS011;15314;49.248;6.968;2023-06-01T04:47:39;9.35;;;8.68;;
27977;SDS011;15314;49.248;6.968;2023-06-01T04:48:39;9.82;;;8.85;;
27977;SDS011;15314;49.248;6.968;2023-06-01T04:49:41;9.18;;;8.68;;
27977;SDS011;15314;49.248;6.968;2023-06-01T04:50:42;9.90;;;9.13;;
27977;SDS011;15314;49.248;6.968;2023-06-01T04:51:44;9.05;;;8.48;;
27977;SDS011;15314;49.248;6.968;2023-06-01T04:52:45;10.48;;;9.57;;
27977;SDS011;15314;49.248;6.968;2023-06-01T04:53:46;10.48;;;9.13;;
27977;SDS011;15314;49.248;6.968;2023-06-01T04:54:51;9.80;;;9.00;;
27977;SDS011;15314;49.248;6.968;2023-06-01T04:55:51;9.60;;;8.73;;
27977;SDS011;15314;49.248;6.968;2023-06-01T04:56:53;10.38;;;9.30;;
27977;SDS011;15314;49.248;6.968;2023-06-01T04:57:54;9.95;;;9.10;;
27977;SDS011;15314;49.248;6.968;2023-06-01T04:58:55;9.73;;;8.95;;
27977;SDS011;15314;49.248;6.968;2023-06-01T04:59:56;10.45;;;9.55;;
27977;SDS011;15314;49.248;6.968;2023-06-01T05:00:57;9.77;;;8.85;;
27977;SDS011;15314;49.248;6.968;2023-06-01T05:02:00;9.45;;;8.88;;
27977;SDS011;15314;49.248;6.968;2023-06-01T05:03:00;11.82;;;9.38;;
27977;SDS011;15314;49.248;6.968;2023-06-01T05:04:02;10.68;;;9.70;;
27977;SDS011;15314;49.248;6.968;2023-06-01T05:05:04;11.30;;;10.05;;
27977;SDS011;15314;49.248;6.968;2023-06-01T05:06:05;10.88;;;9.80;;
27977;SDS011;15314;49.248;6.968;2023-06-01T05:07:06;11.52;;;9.63;;
27977;SDS011;15314;49.248;6.968;2023-06-01T05:08:07;10.70;;;9.50;;
27977;SDS011;15314;49.248;6.968;2023-06-01T05:09:08;10.05;;;9.25;;
27977;SDS011;15314;49.248;6.968;2023-06-01T05:10:10;10.63;;;9.55;;
27977;SDS011;15314;49.248;6.968;2023-06-01T05:11:11;10.82;;;9.80;;
27977;SDS011;15314;49.248;6.968;2023-06-01T05:12:12;9.60;;;9.05;;
27977;SDS011;15314;49.248;6.968;2023-06-01T05:13:12;10.48;;;9.43;;
27977;SDS011;15314;49.248;6.968;2023-06-01T05:14:13;10.90;;;9.82;;
27977;SDS011;15314;49.248;6.968;2023-06-01T05:15:14;10.88;;;10.10;;
27977;SDS011;15314;49.248;6.968;2023-06-01T05:16:16;10.73;;;9.85;;
27977;SDS011;15314;49.248;6.968;2023-06-01T05:17:16;12.73;;;9.93;;
27977;SDS011;15314;49.248;6.968;2023-06-01T05:18:17;10.18;;;9.50;;
27977;SDS011;15314;49.248;6.968;2023-06-01T05:19:18;10.10;;;9.50;;
27977;SDS011;15314;49.248;6.968;2023-06-01T05:20:18;10.93;;;10.05;;
27977;SDS011;15314;49.248;6.968;2023-06-01T05:21:19;15.60;;;14.30;;
27977;SDS011;15314;49.248;6.968;2023-06-01T05:22:20;21.08;;;18.73;;
27977;SDS011;15314;49.248;6.968;2023-06-01T05:23:20;20.42;;;18.25;;
27977;SDS011;15314;49.248;6.968;2023-06-01T05:24:21;24.30;;;21.88;;
27977;SDS011;15314;49.248;6.968;2023-06-01T05:25:22;13.90;;;12.68;;
27977;SDS011;15314;49.248;6.968;2023-06-01T05:26:22;11.60;;;10.85;;
27977;SDS011;15314;49.248;6.968;2023-06-01T05:27:23;12.57;;;11.48;;
27977;SDS011;15314;49.248;6.968;2023-06-01T05:28:24;11.90;;;10.88;;
27977;SDS011;15314;49.248;6.968;2023-06-01T05:29:25;10.82;;;9.68;;
27977;SDS011;15314;49.248;6.968;2023-06-01T05:30:26;10.40;;;9.40;;
27977;SDS011;15314;49.248;6.968;2023-06-01T05:31:26;10.20;;;9.27;;
27977;SDS011;15314;49.248;6.968;2023-06-01T05:32:28;10.70;;;9.02;;
27977;SDS011;15314;49.248;6.968;2023-06-01T05:33:29;10.45;;;9.48;;
27977;SDS011;15314;49.248;6.968;2023-06-01T05:34:30;12.70;;;9.50;;
27977;SDS011;15314;49.248;6.968;2023-06-01T05:35:30;10.15;;;9.20;;
27977;SDS011;15314;49.248;6.968;2023-06-01T05:36:31;12.40;;;9.02;;
27977;SDS011;15314;49.248;6.968;2023-06-01T05:37:32;10.35;;;9.48;;
27977;SDS011;15314;49.248;6.968;2023-06-01T05:38:32;10.52;;;9.57;;
27977;SDS011;15314;49.248;6.968;2023-06-01T05:39:33;10.20;;;9.38;;
27977;SDS011;15314;49.248;6.968;2023-06-01T05:40:33;9.95;;;9.00;;
27977;SDS011;15314;49.248;6.968;2023-06-01T05:41:36;9.07;;;8.57;;
27977;SDS011;15314;49.248;6.968;2023-06-01T05:42:36;10.18;;;9.07;;
27977;SDS011;15314;49.248;6.968;2023-06-01T05:43:37;9.57;;;8.68;;
27977;SDS011;15314;49.248;6.968;2023-06-01T05:44:38;8.98;;;8.38;;
27977;SDS011;15314;49.248;6.968;2023-06-01T05:45:39;10.70;;;9.43;;
27977;SDS011;15314;49.248;6.968;2023-06-01T05:46:39;10.15;;;9.13;;
27977;SDS011;15314;49.248;6.968;2023-06-01T05:47:40;9.68;;;8.80;;
27977;SDS011;15314;49.248;6.968;2023-06-01T05:48:41;10.25;;;9.30;;
27977;SDS011;15314;49.248;6.968;2023-06-01T05:49:41;10.48;;;9.57;;
27977;SDS011;15314;49.248;6.968;2023-06-01T05:50:42;12.52;;;9.75;;
27977;SDS011;15314;49.248;6.968;2023-06-01T05:51:42;13.02;;;9.63;;
27977;SDS011;15314;49.248;6.968;2023-06-01T05:52:43;10.68;;;9.77;;
27977;SDS011;15314;49.248;6.968;2023-06-01T05:53:44;9.63;;;8.77;;
27977;SDS011;15314;49.248;6.968;2023-06-01T05:54:45;10.48;;;9.50;;
27977;SDS011;15314;49.248;6.968;2023-06-01T05:55:45;10.35;;;9.55;;
27977;SDS011;15314;49.248;6.968;2023-06-01T05:56:46;10.88;;;9.93;;
27977;SDS011;15314;49.248;6.968;2023-06-01T05:57:47;10.23;;;9.52;;
27977;SDS011;15314;49.248;6.968;2023-06-01T05:58:47;18.40;;;14.48;;
27977;SDS011;15314;49.248;6.968;2023-06-01T05:59:53;12.68;;;11.45;;
27977;SDS011;15314;49.248;6.968;2023-06-01T06:00:53;11.52;;;9.73;;
27977;SDS011;15314;49.248;6.968;2023-06-01T06:01:54;9.63;;;9.02;;
27977;SDS011;15314;49.248;6.968;2023-06-01T06:02:55;10.50;;;9.60;;
27977;SDS011;15314;49.248;6.968;2023-06-01T06:03:55;10.68;;;9.65;;
27977;SDS011;15314;49.248;6.968;2023-06-01T06:04:57;11.38;;;10.32;;
27977;SDS011;15314;49.248;6.968;2023-06-01T06:05:57;14.05;;;12.75;;
27977;SDS011;15314;49.248;6.968;2023-06-01T06:06:58;15.68;;;13.85;;
27977;SDS011;15314;49.248;6.968;2023-06-01T06:07:59;25.13;;;21.80;;
27977;SDS011;15314;49.248;6.968;2023-06-01T06:09:01;15.48;;;14.00;;
27977;SDS011;15314;49.248;6.968;2023-06-01T06:10:02;13.43;;;12.10;;
27977;SDS011;15314;49.248;6.968;2023-06-01T06:11:04;11.43;;;10.40;;
27977;SDS011;15314;49.248;6.968;2023-06-01T06:12:05;10.13;;;9.32;;
27977;SDS011;15314;49.248;6.968;2023-06-01T06:13:06;10.45;;;9.57;;
27977;SDS011;15314;49.248;6.968;2023-06-01T06:14:07;12.02;;;10.73;;
27977;SDS011;15314;49.248;6.968;2023-06-01T06:15:11;11.00;;;9.98;;
27977;SDS011;15314;49.248;6.968;2023-06-01T06:16:11;10.85;;;9.98;;
27977;SDS011;15314;49.248;6.968;2023-06-01T06:17:12;11.07;;;10.07;;
27977;SDS011;15314;49.248;6.968;2023-06-01T06:18:13;11.13;;;10.05;;
27977;SDS011;15314;49.248;6.968;2023-06-01T06:19:14;10.88;;;9.48;;
27977;SDS011;15314;49.248;6.968;2023-06-01T06:20:16;10.20;;;9.23;;
27977;SDS011;15314;49.248;6.968;2023-06-01T06:21:16;13.15;;;9.48;;